Time;durP1;ratioP1;P1;durP2;ratioP2;P2;SDS_P1;SDS_P2;PMS_P1;PMS_P2;Temp;Humidity;BMP_temperature;BMP_pressure;BME280_temperature;BME280_humidity;BME280_pressure;Samples;Min_cycle;Max_cycle;Signal;HPM_P1;HPM_P2
2022/09/08 00:01:15;;;;;;;7.35;5.38;;;;;;;26.55;64.57;100668.81;5115522;28;20058;-82
2022/09/08 00:03:42;;;;;;;8.90;5.28;;;;;;;26.55;64.75;100663.38;5116098;28;20109;-82
2022/09/08 00:06:16;;;;;;;7.13;5.15;;;;;;;26.55;64.59;100668.81;5115382;28;20043;-82
2022/09/08 00:08:46;;;;;;;6.20;5.63;;;;;;;26.55;64.58;100663.38;5115293;28;20050;-82
2022/09/08 00:11:21;;;;;;;6.03;5.53;;;;;;;26.56;64.55;100662.34;5115931;28;20055;-82
2022/09/08 00:13:49;;;;;;;6.55;5.75;;;;;;;26.54;64.66;100662.53;5115374;28;20475;-83
2022/09/08 00:16:18;;;;;;;6.47;4.95;;;;;;;26.55;64.57;100658.78;5115442;28;20483;-83
2022/09/08 00:18:50;;;;;;;6.63;5.65;;;;;;;26.55;64.42;100657.94;5114977;28;20035;-83
2022/09/08 00:21:23;;;;;;;6.78;5.53;;;;;;;26.55;64.51;100657.94;5115769;28;20039;-82
2022/09/08 00:23:50;;;;;;;5.43;4.80;;;;;;;26.55;64.37;100647.06;5115491;28;20044;-83
2022/09/08 00:26:20;;;;;;;8.38;6.03;;;;;;;26.55;64.58;100652.50;5113109;28;20051;-83
2022/09/08 00:28:48;;;;;;;8.82;6.65;;;;;;;26.55;64.17;100661.50;5114244;28;20047;-83
2022/09/08 00:31:16;;;;;;;7.22;6.05;;;;;;;26.55;64.40;100676.94;5114754;28;20044;-83
2022/09/08 00:33:44;;;;;;;8.93;5.85;;;;;;;26.55;64.47;100690.53;5114767;28;20406;-83
2022/09/08 00:36:16;;;;;;;7.10;5.88;;;;;;;26.54;64.51;100697.81;5114569;28;20043;-83
2022/09/08 00:38:50;;;;;;;7.18;5.68;;;;;;;26.55;64.55;100694.06;5112823;28;20062;-83
2022/09/08 00:41:20;;;;;;;7.13;6.07;;;;;;;26.55;64.41;100685.94;5114921;28;20050;-83
2022/09/08 00:43:58;;;;;;;9.48;5.78;;;;;;;26.55;64.47;100679.66;5115094;28;20048;-83
2022/09/08 00:46:25;;;;;;;6.90;5.97;;;;;;;26.55;64.17;100679.66;5114496;28;20058;-83
2022/09/08 00:49:06;;;;;;;7.22;4.95;;;;;;;26.55;64.22;100675.06;5115010;28;20501;-83
2022/09/08 00:51:38;;;;;;;6.32;5.18;;;;;;;26.55;64.11;100677.78;5114701;28;20047;-83
2022/09/08 00:54:06;;;;;;;7.50;5.20;;;;;;;26.55;64.19;100677.78;5114957;28;20368;-83
2022/09/08 00:56:33;;;;;;;6.43;5.15;;;;;;;26.55;64.23;100683.22;5114856;28;20395;-83
2022/09/08 00:59:02;;;;;;;7.38;6.03;;;;;;;26.56;64.25;100697.63;5114339;28;20043;-84
2022/09/08 01:01:32;;;;;;;9.38;5.55;;;;;;;26.56;64.18;100692.19;5114300;28;20040;-85
2022/09/08 01:04:01;;;;;;;6.88;5.68;;;;;;;26.55;64.36;100704.94;5114878;28;20040;-85
2022/09/08 01:15:01;;;;;;;6.63;5.32;;;;;;;26.56;64.13;100689.47;5114175;28;20047;-83
2022/09/08 01:17:30;;;;;;;8.90;4.90;;;;;;;26.56;64.17;100684.06;5114027;28;20047;-83
2022/09/08 01:20:01;;;;;;;6.38;5.60;;;;;;;26.56;64.07;100684.06;5113979;28;20044;-83
2022/09/08 01:22:46;;;;;;;9.25;5.68;;;;;;;26.55;64.21;100677.78;5114538;28;20507;-82
2022/09/08 01:25:25;;;;;;;6.72;6.13;;;;;;;26.55;64.02;100664.22;5114502;28;20491;-82
2022/09/08 01:28:02;;;;;;;6.72;5.38;;;;;;;26.55;64.26;100638.94;5114724;28;20379;-82
2022/09/08 01:30:30;;;;;;;7.55;6.15;;;;;;;26.55;63.98;100611.78;5113942;28;20059;-83
2022/09/08 01:32:57;;;;;;;7.68;5.85;;;;;;;26.54;63.93;100602.81;5113854;28;20047;-82
2022/09/08 01:35:34;;;;;;;6.63;5.38;;;;;;;26.54;63.88;100604.69;5113975;28;20048;-83
2022/09/08 01:38:02;;;;;;;7.53;5.35;;;;;;;26.54;63.93;100615.53;5114098;28;20040;-82
2022/09/08 01:40:29;;;;;;;6.72;5.40;;;;;;;26.53;63.82;100606.53;5116439;28;20043;-83
2022/09/08 01:42:56;;;;;;;7.07;5.32;;;;;;;26.53;63.59;100603.81;5117988;28;20044;-82
2022/09/08 01:45:24;;;;;;;6.70;5.18;;;;;;;26.54;63.90;100601.97;5116392;28;20059;-83
2022/09/08 01:47:51;;;;;;;7.50;5.60;;;;;;;26.52;63.58;100599.41;5117873;28;20039;-82
2022/09/08 01:50:19;;;;;;;5.78;5.28;;;;;;;26.53;63.67;100609.22;5118201;28;20501;-82
2022/09/08 01:52:47;;;;;;;6.72;5.10;;;;;;;26.52;63.45;100607.56;5117862;28;20040;-82
2022/09/08 01:55:14;;;;;;;8.50;6.13;;;;;;;26.53;63.72;100611.94;5118364;28;20050;-82
2022/09/08 01:57:42;;;;;;;7.30;6.07;;;;;;;26.52;63.42;100609.44;5118126;28;20035;-82
2022/09/08 02:00:10;;;;;;;5.72;5.13;;;;;;;26.52;63.59;100615.69;5118037;28;20044;-83
2022/09/08 02:02:38;;;;;;;6.35;4.88;;;;;;;26.52;63.49;100618.41;5118473;28;20047;-83
2022/09/08 02:05:05;;;;;;;6.45;5.25;;;;;;;26.52;63.70;100620.28;5117597;28;20440;-82
2022/09/08 02:07:34;;;;;;;7.50;5.68;;;;;;;26.52;63.45;100620.28;5116583;28;20042;-82
2022/09/08 02:10:04;;;;;;;5.82;5.28;;;;;;;26.52;63.65;100621.13;5118052;28;20043;-82
2022/09/08 02:12:32;;;;;;;7.95;5.68;;;;;;;26.53;63.43;100619.25;5117561;28;20048;-82
2022/09/08 02:14:59;;;;;;;5.18;4.68;;;;;;;26.52;63.64;100623.84;5117471;28;20070;-83
2022/09/08 02:17:28;;;;;;;5.85;5.13;;;;;;;26.52;63.40;100626.56;5117291;28;20051;-83
2022/09/08 02:19:55;;;;;;;4.90;4.45;;;;;;;26.53;63.66;100621.97;5115749;28;20051;-83
2022/09/08 02:22:23;;;;;;;5.43;4.38;;;;;;;26.51;63.53;100600.44;5115977;28;20058;-82
2022/09/08 02:24:50;;;;;;;6.38;4.45;;;;;;;26.53;63.63;100600.25;5117245;28;20418;-82
2022/09/08 02:27:18;;;;;;;8.05;5.20;;;;;;;26.53;63.66;100605.69;5115747;28;20055;-82
2022/09/08 02:29:45;;;;;;;6.63;4.40;;;;;;;26.53;63.30;100608.41;5117680;28;20457;-83
2022/09/08 02:32:12;;;;;;;5.38;4.43;;;;;;;26.53;63.35;100609.22;5115343;28;20054;-82
2022/09/08 02:34:40;;;;;;;6.35;4.70;;;;;;;26.52;63.53;100613.00;5117668;28;20387;-83
2022/09/08 02:37:07;;;;;;;5.50;4.97;;;;;;;26.54;63.40;100596.53;5116993;28;20051;-83
2022/09/08 02:39:34;;;;;;;6.40;4.30;;;;;;;26.52;63.63;100593.97;5116846;28;20078;-83
2022/09/08 02:42:01;;;;;;;5.78;5.20;;;;;;;26.53;63.39;100586.69;5116918;28;20044;-81
2022/09/08 02:44:29;;;;;;;6.28;4.70;;;;;;;26.53;63.41;100584.81;5116825;28;20380;-81
2022/09/08 02:46:57;;;;;;;6.93;5.25;;;;;;;26.53;63.23;100579.38;5117204;28;20049;-82
2022/09/08 02:49:24;;;;;;;5.28;4.43;;;;;;;26.53;63.25;100563.09;5117522;28;20054;-82
2022/09/08 02:51:51;;;;;;;5.63;4.70;;;;;;;26.53;63.27;100554.09;5116179;28;20047;-82
2022/09/08 02:54:19;;;;;;;5.82;4.65;;;;;;;26.54;63.07;100550.38;5115509;28;20047;-83
2022/09/08 02:56:46;;;;;;;6.53;5.22;;;;;;;26.53;63.35;100552.22;5116625;28;20051;-82
2022/09/08 02:59:14;;;;;;;5.32;4.82;;;;;;;26.53;63.47;100551.38;5116561;28;20039;-82
2022/09/08 03:01:46;;;;;;;7.60;4.95;;;;;;;26.53;63.03;100565.78;5117054;28;20044;-82
2022/09/08 03:04:14;;;;;;;6.82;5.35;;;;;;;26.53;63.18;100560.38;5117134;28;20498;-82
2022/09/08 03:06:43;;;;;;;5.68;5.18;;;;;;;26.53;63.25;100563.09;5116434;28;20048;-82
2022/09/08 03:09:10;;;;;;;5.40;4.95;;;;;;;26.53;63.16;100554.94;5116241;28;20043;-82
2022/09/08 03:11:38;;;;;;;5.82;4.85;;;;;;;26.53;63.27;100546.78;5116469;28;20043;-83
2022/09/08 03:14:06;;;;;;;6.72;5.30;;;;;;;26.53;63.23;100535.09;5116286;28;20502;-83
2022/09/08 03:16:33;;;;;;;5.15;4.65;;;;;;;26.52;63.22;100522.56;5116234;28;20043;-82
2022/09/08 03:19:01;;;;;;;5.15;4.65;;;;;;;26.52;63.26;100533.41;5115600;28;20042;-82
2022/09/08 03:21:28;;;;;;;7.38;5.10;;;;;;;26.53;63.18;100527.78;5117061;28;20109;-83
2022/09/08 03:23:55;;;;;;;6.47;4.85;;;;;;;26.52;63.12;100533.41;5116619;28;20048;-83
2022/09/08 03:26:24;;;;;;;5.47;4.97;;;;;;;26.52;63.24;100536.13;5114529;28;20510;-84
2022/09/08 03:28:52;;;;;;;6.50;4.63;;;;;;;26.53;63.05;100526.94;5116008;28;20502;-84
2022/09/08 03:31:21;;;;;;;8.15;5.05;;;;;;;26.51;63.41;100505.44;5116023;28;20109;-84
2022/09/08 03:33:48;;;;;;;5.93;4.70;;;;;;;26.52;63.08;100492.69;5115926;28;20055;-84
2022/09/08 03:36:17;;;;;;;7.07;4.57;;;;;;;26.51;63.21;100502.72;5114112;28;20056;-84
2022/09/08 03:38:45;;;;;;;4.85;4.30;;;;;;;26.51;63.08;100501.88;5115668;28;20048;-83
2022/09/08 03:41:15;;;;;;;5.20;4.70;;;;;;;26.51;63.00;100493.72;5115781;28;20043;-83
2022/09/08 03:43:45;;;;;;;5.50;4.20;;;;;;;26.51;63.32;100489.16;5115748;28;20051;-83
2022/09/08 03:46:13;;;;;;;5.80;5.00;;;;;;;26.51;63.28;100491.03;5115782;28;20410;-84
2022/09/08 03:48:41;;;;;;;7.15;5.10;;;;;;;26.51;63.19;100491.03;5116156;28;20043;-84
2022/09/08 03:51:22;;;;;;;5.88;4.60;;;;;;;26.50;63.02;100501.03;5115603;28;20047;-83
2022/09/08 03:53:51;;;;;;;9.05;5.68;;;;;;;26.51;62.75;100507.31;5115997;28;20040;-82
2022/09/08 03:56:18;;;;;;;7.13;5.20;;;;;;;26.52;62.78;100508.97;5115726;28;20387;-83
2022/09/08 03:58:46;;;;;;;6.20;5.00;;;;;;;26.50;62.78;100522.75;5116245;28;20046;-83
2022/09/08 04:01:16;;;;;;;7.15;4.70;;;;;;;26.50;63.08;100528.19;5114096;28;20051;-83
2022/09/08 04:03:45;;;;;;;5.18;4.60;;;;;;;26.50;63.05;100524.63;5115162;28;20043;-83
2022/09/08 04:06:13;;;;;;;5.60;4.70;;;;;;;26.51;63.28;100523.59;5115625;28;20039;-84
2022/09/08 04:08:41;;;;;;;5.43;4.60;;;;;;;26.50;63.25;100520.03;5115125;28;20044;-83
2022/09/08 04:11:09;;;;;;;4.72;4.28;;;;;;;26.50;63.25;100511.91;5115165;28;20070;-83
2022/09/08 04:13:37;;;;;;;5.93;5.22;;;;;;;26.50;63.12;100509.19;5115265;28;20510;-84
2022/09/08 04:16:04;;;;;;;7.45;5.57;;;;;;;26.49;63.04;100510.19;5115699;28;20035;-83
2022/09/08 04:18:32;;;;;;;6.55;5.78;;;;;;;26.48;62.88;100504.97;5115483;28;20058;-83
2022/09/08 04:21:02;;;;;;;7.65;5.50;;;;;;;26.45;62.98;100498.03;5113501;28;20502;-82
2022/09/08 04:23:30;;;;;;;8.88;6.28;;;;;;;26.43;63.07;100491.09;5115717;28;20074;-83
2022/09/08 04:25:59;;;;;;;7.47;6.25;;;;;;;26.41;62.80;100493.97;5115839;28;20043;-82
2022/09/08 04:28:26;;;;;;;8.13;6.05;;;;;;;26.39;63.07;100493.31;5115500;28;20051;-83
2022/09/08 04:30:54;;;;;;;9.38;6.45;;;;;;;26.38;62.94;100492.47;5115190;28;20051;-83
2022/09/08 04:33:21;;;;;;;7.30;6.43;;;;;;;26.37;63.08;100508.94;5115130;28;20070;-82
2022/09/08 04:35:49;;;;;;;5.80;5.07;;;;;;;26.37;63.03;100508.94;5114844;28;20398;-85
2022/09/08 04:38:27;;;;;;;6.43;5.18;;;;;;;26.38;63.05;100497.06;5114849;28;20376;-84
2022/09/08 04:40:54;;;;;;;7.55;5.45;;;;;;;26.38;62.92;100494.34;5115240;28;20052;-84
2022/09/08 04:43:21;;;;;;;8.35;5.20;;;;;;;26.38;63.17;100502.50;5115114;28;20044;-84
2022/09/08 04:45:49;;;;;;;9.57;5.93;;;;;;;26.38;63.16;100510.66;5114640;28;20043;-84
2022/09/08 04:48:16;;;;;;;7.57;5.75;;;;;;;26.36;62.92;100501.84;5114488;28;20047;-85
2022/09/08 04:50:43;;;;;;;7.20;5.25;;;;;;;26.35;62.95;100494.72;5114619;28;20043;-83
2022/09/08 04:53:10;;;;;;;7.97;5.75;;;;;;;26.35;62.99;100497.44;5112915;28;20043;-82
2022/09/08 04:55:38;;;;;;;7.70;5.45;;;;;;;26.33;62.83;100489.50;5113227;28;20051;-83
2022/09/08 04:58:05;;;;;;;7.05;6.30;;;;;;;26.32;62.69;100484.22;5114475;28;20043;-83
2022/09/08 05:00:33;;;;;;;11.75;5.65;;;;;;;26.31;62.84;100496.13;5114340;28;20043;-82
2022/09/08 05:03:02;;;;;;;7.60;6.10;;;;;;;26.32;62.90;100495.09;5114166;28;20048;-82
2022/09/08 05:05:29;;;;;;;6.70;5.80;;;;;;;26.28;62.87;100497.34;5114272;28;20036;-83
2022/09/08 05:07:57;;;;;;;8.07;6.07;;;;;;;26.28;62.76;100485.63;5114263;28;20048;-82
2022/09/08 05:10:24;;;;;;;5.82;5.22;;;;;;;26.28;62.81;100478.34;5114570;28;20036;-83
2022/09/08 05:12:51;;;;;;;7.57;6.15;;;;;;;26.27;62.64;100475.81;5114080;28;20048;-82
2022/09/08 05:15:19;;;;;;;6.68;5.35;;;;;;;26.26;62.66;100466.00;5112842;28;20510;-82
2022/09/08 05:17:47;;;;;;;8.25;5.35;;;;;;;26.27;62.61;100467.69;5114288;28;20047;-82
2022/09/08 05:20:14;;;;;;;10.68;6.28;;;;;;;26.26;62.95;100468.72;5114895;28;20043;-83
2022/09/08 05:22:42;;;;;;;9.40;5.65;;;;;;;26.24;62.96;100466.16;5114552;28;20047;-83
2022/09/08 05:25:11;;;;;;;8.15;5.65;;;;;;;26.26;62.93;100468.72;5114849;28;20471;-82
2022/09/08 05:27:38;;;;;;;5.88;5.38;;;;;;;26.26;63.03;100466.00;5114051;28;20040;-82
2022/09/08 05:30:06;;;;;;;7.07;5.38;;;;;;;26.26;62.97;100455.16;5113794;28;20039;-82
2022/09/08 05:32:34;;;;;;;8.32;5.70;;;;;;;26.24;62.90;100455.31;5114465;28;20506;-82
2022/09/08 05:35:02;;;;;;;6.93;5.38;;;;;;;26.26;62.87;100458.69;5113849;28;20055;-83
2022/09/08 05:37:29;;;;;;;8.00;5.60;;;;;;;26.27;63.11;100470.38;5113738;28;20058;-82
2022/09/08 05:39:56;;;;;;;6.32;5.72;;;;;;;26.27;62.74;100481.25;5114131;28;20491;-82
2022/09/08 05:42:23;;;;;;;5.80;5.20;;;;;;;26.27;62.88;100492.09;5113850;28;20487;-83
2022/09/08 05:44:51;;;;;;;6.30;5.68;;;;;;;26.27;63.00;100497.53;5114037;28;20506;-82
2022/09/08 05:47:18;;;;;;;10.35;6.35;;;;;;;26.27;63.08;100494.81;5113835;28;20398;-82
2022/09/08 05:49:46;;;;;;;7.25;5.57;;;;;;;26.26;63.02;100491.25;5113716;28;20047;-83
2022/09/08 05:52:14;;;;;;;8.52;5.38;;;;;;;26.27;63.04;100475.81;5114590;28;20364;-82
2022/09/08 05:54:41;;;;;;;7.85;6.15;;;;;;;26.27;63.19;100483.97;5113747;28;20054;-83
2022/09/08 05:57:08;;;;;;;5.95;5.20;;;;;;;26.25;63.29;100484.16;5113666;28;20040;-83
2022/09/08 05:59:35;;;;;;;6.93;6.22;;;;;;;26.23;63.16;100479.94;5113939;28;20514;-82
2022/09/08 06:02:03;;;;;;;9.07;6.63;;;;;;;26.24;63.35;100503.31;5114010;28;20047;-82
2022/09/08 06:04:30;;;;;;;5.80;5.20;;;;;;;26.24;63.29;100511.47;5113569;28;20044;-81
2022/09/08 06:07:02;;;;;;;7.60;5.95;;;;;;;26.23;63.33;100513.34;5114461;28;20051;-82
2022/09/08 06:09:29;;;;;;;7.28;6.32;;;;;;;26.23;63.27;100507.91;5113766;28;20067;-83
2022/09/08 06:11:57;;;;;;;8.50;5.53;;;;;;;26.25;63.39;100511.28;5113679;28;20403;-83
2022/09/08 06:14:24;;;;;;;6.88;5.40;;;;;;;26.26;63.37;100512.13;5114148;28;20051;-83
2022/09/08 06:16:52;;;;;;;6.85;5.40;;;;;;;26.24;63.36;100509.59;5113584;28;20051;-83
2022/09/08 06:19:19;;;;;;;6.15;5.47;;;;;;;26.26;63.41;100517.56;5113660;28;20039;-85
2022/09/08 06:21:47;;;;;;;6.43;5.28;;;;;;;26.27;63.48;100517.38;5112688;28;20047;-86
2022/09/08 06:24:14;;;;;;;8.07;5.53;;;;;;;26.26;63.11;100512.13;5114308;28;20054;-84
2022/09/08 06:26:54;;;;;;;6.47;5.30;;;;;;;26.26;63.07;100512.97;5116173;28;20048;-81
2022/09/08 06:29:25;;;;;;;8.05;5.82;;;;;;;26.26;63.12;100493.97;5117836;28;20035;-81
2022/09/08 06:32:19;;;;;;;7.07;6.10;;;;;;;26.26;63.22;100491.25;5117538;28;20418;-83
2022/09/08 06:34:51;;;;;;;8.48;6.63;;;;;;;26.25;63.24;100484.16;5116002;28;20048;-84
2022/09/08 06:37:30;;;;;;;8.07;6.75;;;;;;;26.24;63.21;100470.75;5117072;28;20052;-83
2022/09/08 06:40:05;;;;;;;7.93;7.07;;;;;;;26.24;63.29;100457.19;5117303;28;20051;-83
2022/09/08 06:43:20;;;;;;;6.72;5.88;;;;;;;26.24;63.59;100449.88;5118059;28;20052;-82
2022/09/08 06:45:52;;;;;;;10.93;6.47;;;;;;;26.26;63.72;100457.84;5034384;28;20053;-83
2022/09/08 06:48:22;;;;;;;7.45;6.53;;;;;;;26.26;63.62;100452.44;5034699;28;20189;-85
2022/09/08 06:50:55;;;;;;;8.68;6.43;;;;;;;26.25;63.80;100446.16;5001253;28;20050;-83
2022/09/08 06:53:26;;;;;;;8.55;6.72;;;;;;;26.26;63.88;100441.56;5034776;28;20045;-83
2022/09/08 06:56:21;;;;;;;9.70;7.78;;;;;;;26.26;63.98;100444.28;5034317;28;20398;-83
2022/09/08 06:59:17;;;;;;;7.22;6.38;;;;;;;26.26;64.30;100430.72;5033829;28;20053;-83
2022/09/08 07:01:52;;;;;;;7.72;6.25;;;;;;;26.26;64.19;100423.41;5035203;28;20053;-85
2022/09/08 07:04:38;;;;;;;10.85;7.10;;;;;;;26.26;64.54;100426.13;5035680;28;20068;-86
2022/09/08 07:07:08;;;;;;;7.82;6.47;;;;;;;26.27;64.74;100435.13;5019028;28;20049;-82
2022/09/08 07:09:41;;;;;;;9.45;7.40;;;;;;;26.27;64.59;100435.13;5035322;28;20049;-87
2022/09/08 07:12:41;;;;;;;10.35;9.35;;;;;;;26.24;65.41;100430.06;5035350;28;20524;-84
2022/09/08 07:15:24;;;;;;;11.95;10.75;;;;;;;26.20;66.39;100426.88;5035051;28;20493;-88
2022/09/08 07:18:12;;;;;;;11.63;10.05;;;;;;;26.16;66.07;100430.97;5117900;28;20056;-83
2022/09/08 07:20:40;;;;;;;12.93;10.38;;;;;;;26.13;66.24;100432.22;5117539;28;20062;-84
2022/09/08 07:23:21;;;;;;;12.77;10.32;;;;;;;26.11;66.37;100436.13;5116202;28;20048;-84
2022/09/08 07:25:59;;;;;;;12.00;10.68;;;;;;;26.09;66.03;100428.19;5116188;28;20044;-83
2022/09/08 07:28:31;;;;;;;13.35;10.15;;;;;;;26.10;65.99;100432.59;5116934;28;20062;-84
2022/09/08 07:31:02;;;;;;;12.52;10.48;;;;;;;26.09;66.11;100425.47;5116750;28;20044;-83
2022/09/08 07:33:36;;;;;;;13.75;10.20;;;;;;;26.09;66.30;100421.91;5116860;28;20047;-83
2022/09/08 07:36:26;;;;;;;13.25;9.57;;;;;;;26.09;65.87;100413.75;5116717;28;20048;-83
2022/09/08 07:38:56;;;;;;;12.10;9.32;;;;;;;26.08;66.42;100421.06;5116218;28;20051;-83
2022/09/08 07:41:59;;;;;;;10.73;9.52;;;;;;;26.08;66.27;100429.19;5116415;28;20046;-83
2022/09/08 07:44:26;;;;;;;11.17;10.00;;;;;;;26.09;66.35;100439.03;5064574;28;20064;-83
2022/09/08 07:47:16;;;;;;;12.18;9.52;;;;;;;26.08;66.80;100440.06;5116167;28;20051;-83
2022/09/08 07:50:09;;;;;;;14.68;9.50;;;;;;;26.10;66.84;100448.84;5078960;28;20059;-83
2022/09/08 07:52:41;;;;;;;13.37;8.93;;;;;;;26.11;66.60;100460.56;5114092;28;20052;-83
2022/09/08 07:55:17;;;;;;;;;;;;;;;26.10;66.92;100459.72;5116624;28;20059;-83
2022/09/08 07:58:18;;;;;;;16.30;10.40;;;;;;;26.06;66.46;100457.56;5116553;28;20283;-81
2022/09/08 08:01:06;;;;;;;14.65;10.57;;;;;;;26.04;67.14;100460.44;5117441;28;20039;-85
2022/09/08 08:03:52;;;;;;;8.38;7.45;;;;;;;26.04;66.85;100465.88;5117056;28;20398;-88
2022/09/08 08:06:39;;;;;;;15.68;9.68;;;;;;;26.05;67.35;100467.56;5117357;28;20058;-88
2022/09/08 08:09:34;;;;;;;10.45;8.63;;;;;;;26.05;67.33;100467.56;5116865;28;20046;-88
2022/09/08 08:12:27;;;;;;;8.43;7.20;;;;;;;26.05;67.00;100464.84;5114733;28;20047;-88
2022/09/08 08:15:12;;;;;;;11.90;8.52;;;;;;;26.06;67.10;100462.97;5116049;28;20039;-87
2022/09/08 08:18:14;;;;;;;14.23;8.15;;;;;;;26.08;67.04;100488.88;5115830;28;20051;-89
2022/09/08 08:20:50;;;;;;;9.90;8.90;;;;;;;26.09;67.35;100479.75;5115979;28;20044;-88
2022/09/08 08:23:26;;;;;;;13.00;9.30;;;;;;;26.08;67.29;100486.16;5116129;28;20402;-87
2022/09/08 08:26:07;;;;;;;9.90;8.73;;;;;;;26.09;67.30;100484.28;5116094;28;20044;-88
2022/09/08 08:28:43;;;;;;;10.18;9.18;;;;;;;26.09;67.48;100481.56;5116514;28;20058;-87
2022/09/08 08:31:24;;;;;;;12.02;9.70;;;;;;;26.08;67.51;100480.75;5116092;28;20036;-84
2022/09/08 08:34:00;;;;;;;18.80;11.13;;;;;;;26.05;67.19;100494.69;5116423;28;20482;-89
2022/09/08 08:36:31;;;;;;;12.23;10.23;;;;;;;26.01;67.32;100498.81;5114330;28;20047;-89
2022/09/08 08:39:15;;;;;;;12.10;10.43;;;;;;;25.96;67.74;100497.66;5115848;28;20411;-88
2022/09/08 08:41:45;;;;;;;11.88;9.32;;;;;;;25.94;67.36;100506.00;5114911;28;20040;-89
2022/09/08 08:44:31;;;;;;;11.55;9.07;;;;;;;25.93;67.75;100517.88;5114536;28;20063;-88
2022/09/08 08:47:07;;;;;;;11.85;9.20;;;;;;;25.91;67.51;100509.06;5115306;28;20054;-88
2022/09/08 08:50:12;;;;;;;14.68;8.23;;;;;;;25.93;67.49;100507.03;5112313;28;20055;-89
2022/09/08 08:53:00;;;;;;;12.60;8.40;;;;;;;25.93;68.31;100504.31;5115059;28;20478;-87
2022/09/08 08:55:39;;;;;;;13.43;9.60;;;;;;;25.94;68.40;100513.28;5114588;28;20046;-88
2022/09/08 08:58:45;;;;;;;10.13;8.32;;;;;;;25.94;68.26;100516.84;5114461;28;20491;-88
2022/09/08 09:01:16;;;;;;;11.95;8.57;;;;;;;25.95;68.38;100509.53;5032079;28;20072;-86
2022/09/08 09:04:05;;;;;;;9.35;8.25;;;;;;;25.95;68.44;100502.25;5031830;28;20054;-88
2022/09/08 09:06:45;;;;;;;11.13;8.65;;;;;;;25.96;68.33;100500.38;5031505;28;20061;-87
2022/09/08 09:09:40;;;;;;;10.85;8.88;;;;;;;25.96;68.46;100508.50;5032560;28;20053;-87
2022/09/08 09:12:13;;;;;;;11.13;8.32;;;;;;;25.98;68.72;100507.31;5032372;28;20465;-90
2022/09/08 09:15:13;;;;;;;10.05;7.10;;;;;;;25.97;67.94;100508.34;5031962;28;20601;-90
2022/09/08 09:18:04;;;;;;;10.68;7.05;;;;;;;25.99;66.74;100498.13;5017930;28;20049;-86
2022/09/08 09:20:37;;;;;;;7.80;5.78;;;;;;;25.99;66.92;100491.88;5031507;28;20053;-88
2022/09/08 09:23:35;;;;;;;9.25;5.60;;;;;;;26.00;66.75;100501.69;5031800;28;20060;-88
2022/09/08 09:26:16;;;;;;;5.82;5.22;;;;;;;26.02;66.20;100502.34;5032377;28;20057;-88
2022/09/08 09:29:15;;;;;;;7.88;5.32;;;;;;;26.04;66.24;100508.44;5032678;28;20056;-89
2022/09/08 09:32:14;;;;;;;7.97;4.97;;;;;;;26.05;66.54;100521.81;5034351;28;20049;-89
2022/09/08 09:34:53;;;;;;;10.20;6.07;;;;;;;26.07;66.30;100517.03;5051449;28;20052;-90
2022/09/08 09:37:45;;;;;;;10.90;5.63;;;;;;;26.09;67.13;100514.13;5053493;28;20049;-90
2022/09/08 09:40:27;;;;;;;8.93;6.63;;;;;;;26.09;66.82;100523.16;5093923;28;20059;-90
2022/09/08 09:43:33;;;;;;;9.65;5.65;;;;;;;26.10;67.22;100521.28;5093990;28;20071;-90
2022/09/08 09:46:19;;;;;;;8.80;6.53;;;;;;;26.11;66.91;100528.38;5092172;28;20488;-89
2022/09/08 09:49:00;;;;;;;8.20;5.50;;;;;;;26.12;66.25;100527.34;5096127;28;20048;-90
2022/09/08 09:51:30;;;;;;;7.97;6.32;;;;;;;26.13;65.68;100535.31;5095851;28;20052;-88
2022/09/08 09:54:10;;;;;;;5.43;4.80;;;;;;;26.14;65.86;100530.72;5096453;28;20052;-87
2022/09/08 09:57:24;;;;;;;9.05;5.60;;;;;;;26.15;65.86;100532.41;5096630;28;20055;-90
2022/09/08 10:00:17;;;;;;;7.22;5.32;;;;;;;26.17;65.75;100535.78;5015082;28;20062;-90
2022/09/08 10:03:07;;;;;;;7.20;6.25;;;;;;;26.18;65.88;100529.34;5017525;28;20124;-90
2022/09/08 10:05:58;;;;;;;10.07;5.88;;;;;;;26.19;66.08;100541.88;5015956;28;20121;-92
2022/09/08 10:08:28;;;;;;;6.57;5.05;;;;;;;26.20;66.07;100542.69;5001672;28;20058;-93
2022/09/08 10:11:38;;;;;;;9.63;5.72;;;;;;;26.21;66.43;100539.81;5002547;28;20072;-90
2022/09/08 10:14:11;;;;;;;8.05;5.75;;;;;;;26.23;66.71;100545.06;5017615;28;20054;-90
2022/09/08 10:17:07;;;;;;;9.10;5.68;;;;;;;26.24;66.69;100542.16;4984168;28;20513;-91
2022/09/08 10:19:40;;;;;;;6.18;5.15;;;;;;;26.27;66.54;100541.78;5000229;28;20050;-89
2022/09/08 10:22:07;;;;;;;7.18;5.40;;;;;;;26.27;66.79;100530.09;5016908;28;20057;-92
2022/09/08 10:24:49;;;;;;;6.10;5.30;;;;;;;26.29;66.46;100534.31;5002299;28;20061;-92
2022/09/08 10:27:43;;;;;;;7.40;6.07;;;;;;;26.29;66.71;100525.31;5002557;28;20053;-92
2022/09/08 10:30:30;;;;;;;7.50;5.35;;;;;;;26.29;66.38;100515.31;4994903;28;20169;-92
2022/09/08 10:33:32;;;;;;;8.77;4.93;;;;;;;26.31;66.77;100524.09;5000588;28;20046;-90
2022/09/08 10:36:08;;;;;;;8.20;5.22;;;;;;;26.33;66.41;100523.91;5040648;28;20487;-88
2022/09/08 10:39:00;;;;;;;9.95;5.75;;;;;;;26.32;66.29;100503.22;5098541;28;20056;-90
2022/09/08 10:41:45;;;;;;;8.98;5.00;;;;;;;26.33;65.40;100510.34;5103227;28;20055;-90
2022/09/08 10:44:28;;;;;;;8.77;5.00;;;;;;;26.33;65.47;100511.22;5099819;28;20052;-90
2022/09/08 10:47:41;;;;;;;7.72;4.50;;;;;;;26.34;65.34;100509.34;5099736;28;20369;-92
2022/09/08 10:50:24;;;;;;;6.75;4.72;;;;;;;26.35;64.92;100505.59;5017406;28;20065;-91
2022/09/08 10:53:10;;;;;;;7.53;4.88;;;;;;;26.34;64.66;100495.75;5001365;28;20049;-91
2022/09/08 10:55:52;;;;;;;12.15;5.07;;;;;;;26.35;64.89;100494.72;5017502;28;20104;-91
2022/09/08 10:58:32;;;;;;;8.88;5.10;;;;;;;26.35;64.50;100489.28;5000284;28;20062;-91
2022/09/08 11:01:06;;;;;;;10.13;4.78;;;;;;;26.36;64.76;100501.84;5016863;28;20066;-90
2022/09/08 11:04:09;;;;;;;6.47;4.25;;;;;;;26.36;65.05;100493.69;5017309;28;20045;-90
2022/09/08 11:06:58;;;;;;;;;;;;;;;26.37;65.20;100492.66;5016606;28;20057;-90
2022/09/08 11:09:47;;;;;;;6.22;4.35;;;;;;;26.35;64.38;100484.72;5017182;28;19921;-90
2022/09/08 11:12:36;;;;;;;5.40;4.20;;;;;;;26.36;64.43;100477.41;4999586;28;20050;-89
2022/09/08 11:15:30;;;;;;;8.35;4.32;;;;;;;26.37;64.37;100488.09;5015298;28;20061;-88
2022/09/08 11:18:14;;;;;;;6.93;4.32;;;;;;;26.37;64.12;100482.66;4999826;28;20053;-88
2022/09/08 11:20:51;;;;;;;7.72;3.83;;;;;;;26.38;64.31;100483.50;4982865;28;20561;-89
2022/09/08 11:23:25;;;;;;;8.98;5.20;;;;;;;26.40;64.10;100481.44;5016187;28;20052;-88
2022/09/08 11:25:55;;;;;;;9.20;4.38;;;;;;;26.39;63.79;100485.19;4999057;28;20061;-88
2022/09/08 11:28:27;;;;;;;6.22;3.83;;;;;;;26.39;63.68;100480.59;5096490;28;20044;-87
2022/09/08 11:31:15;;;;;;;8.70;3.90;;;;;;;26.40;63.33;100484.16;5097718;28;20044;-84
2022/09/08 11:33:51;;;;;;;6.10;3.85;;;;;;;26.39;62.77;100480.59;5115885;28;20483;-88
2022/09/08 11:36:44;;;;;;;6.20;3.85;;;;;;;26.40;62.77;100467.84;5117961;28;20050;-88
2022/09/08 11:39:39;;;;;;;6.13;4.05;;;;;;;26.40;63.69;100476.00;5110704;28;20069;-88
2022/09/08 11:42:22;;;;;;;7.18;3.67;;;;;;;26.41;62.24;100474.13;5118244;28;20044;-89
2022/09/08 11:45:24;;;;;;;10.18;3.80;;;;;;;26.39;62.10;100472.44;5118966;28;20043;-87
2022/09/08 11:48:06;;;;;;;6.45;3.58;;;;;;;26.42;62.23;100473.13;5118684;28;20047;-89
2022/09/08 11:50:53;;;;;;;7.47;3.88;;;;;;;26.41;62.04;100477.69;5117361;28;20055;-82
2022/09/08 11:53:27;;;;;;;6.85;3.60;;;;;;;26.41;61.41;100474.97;5117550;28;20040;-88
2022/09/08 11:56:17;;;;;;;6.45;3.65;;;;;;;26.40;61.39;100467.84;5117174;27;20048;-88
2022/09/08 11:58:56;;;;;;;5.22;3.00;;;;;;;26.41;60.32;100464.09;5116870;28;20426;-89
2022/09/08 12:01:42;;;;;;;7.05;4.13;;;;;;;26.42;59.10;100465.81;5117613;28;20051;-89
2022/09/08 12:04:21;;;;;;;6.95;3.67;;;;;;;26.42;58.19;100456.84;5125290;27;20069;-87
2022/09/08 12:07:08;;;;;;;7.82;3.17;;;;;;;26.43;58.19;100448.50;5117948;28;20051;-90
2022/09/08 12:10:10;;;;;;;6.03;3.25;;;;;;;26.43;59.15;100445.78;5115415;28;20047;-87
2022/09/08 12:12:56;;;;;;;5.95;3.38;;;;;;;26.43;57.19;100443.06;5118461;28;20047;-88